createdAt,value
2023-12-26T00:00:59.660Z,1.20
2023-12-26T00:03:29.290Z,1.00
2023-12-26T00:05:57.215Z,1.08
2023-12-26T00:08:25.057Z,1.05
2023-12-26T00:10:52.930Z,1.30
2023-12-26T00:13:20.724Z,1.35
2023-12-26T00:15:48.398Z,1.50
2023-12-26T00:18:18.228Z,1.02
2023-12-26T00:20:46.132Z,0.95
2023-12-26T00:23:15.212Z,1.03
2023-12-26T00:25:45.443Z,1.65
2023-12-26T00:28:15.254Z,1.08
2023-12-26T00:30:43.015Z,1.00
2023-12-26T00:33:10.941Z,1.13
2023-12-26T00:35:40.156Z,0.73
2023-12-26T00:38:07.892Z,0.70
2023-12-26T00:40:40.749Z,0.60
2023-12-26T00:43:08.456Z,1.35
2023-12-26T00:45:36.365Z,1.00
2023-12-26T00:48:04.833Z,1.20
2023-12-26T00:50:32.587Z,1.10
2023-12-26T00:53:04.892Z,1.38
2023-12-26T00:55:32.677Z,1.17
2023-12-26T00:58:00.359Z,1.05
2023-12-26T01:00:28.143Z,0.90
2023-12-26T01:02:56.309Z,1.70
2023-12-26T01:05:24.305Z,1.08
2023-12-26T01:07:52.002Z,1.35
2023-12-26T01:10:21.249Z,1.33
2023-12-26T01:12:51.019Z,1.00
2023-12-26T01:15:18.908Z,0.80
2023-12-26T01:17:46.785Z,0.93
2023-12-26T01:20:14.564Z,1.42
2023-12-26T01:22:42.271Z,0.88
2023-12-26T01:25:12.598Z,1.00
2023-12-26T01:27:41.648Z,1.55
2023-12-26T01:30:09.839Z,1.00
2023-12-26T01:32:37.737Z,1.00
2023-12-26T01:35:05.755Z,1.17
2023-12-26T01:37:33.419Z,1.17
2023-12-26T01:40:01.224Z,1.27
2023-12-26T01:42:29.295Z,1.40
2023-12-26T01:44:58.440Z,1.58
2023-12-26T01:47:26.694Z,1.77
2023-12-26T01:49:54.831Z,1.87
2023-12-26T01:52:22.739Z,1.33
2023-12-26T01:54:50.616Z,1.13
2023-12-26T01:57:18.381Z,1.52
2023-12-26T01:59:46.158Z,1.45
2023-12-26T02:02:16.264Z,1.53
2023-12-26T02:04:44.759Z,1.60
2023-12-26T02:07:12.449Z,1.15
2023-12-26T02:09:42.767Z,1.30
2023-12-26T02:12:10.566Z,1.30
2023-12-26T02:14:38.382Z,1.00
2023-12-26T02:17:09.460Z,1.27
2023-12-26T02:19:43.847Z,1.25
2023-12-26T02:22:11.840Z,0.85
2023-12-26T02:24:43.701Z,2.08
2023-12-26T02:27:14.512Z,1.63
2023-12-26T02:29:42.730Z,1.20
2023-12-26T02:32:11.394Z,1.20
2023-12-26T02:34:40.331Z,0.80
2023-12-26T02:37:08.379Z,1.10
2023-12-26T02:39:36.844Z,1.97
2023-12-26T02:42:06.252Z,1.00
2023-12-26T02:44:34.129Z,0.93
2023-12-26T02:47:01.776Z,1.20
2023-12-26T02:49:29.445Z,1.92
2023-12-26T02:51:57.228Z,1.53
2023-12-26T02:54:24.959Z,1.45
2023-12-26T02:56:52.678Z,1.50
2023-12-26T02:59:21.930Z,1.73
2023-12-26T03:01:50.192Z,2.03
2023-12-26T03:04:18.443Z,2.27
2023-12-26T03:06:46.424Z,1.27
2023-12-26T03:09:14.216Z,1.67
2023-12-26T03:11:41.914Z,1.95
2023-12-26T03:14:09.739Z,1.25
2023-12-26T03:16:38.845Z,0.77
2023-12-26T03:19:06.671Z,1.00
2023-12-26T03:21:34.494Z,1.20
2023-12-26T03:24:02.269Z,0.70
2023-12-26T03:26:29.951Z,0.80
2023-12-26T03:29:01.867Z,0.87
2023-12-26T03:31:29.523Z,1.10
2023-12-26T03:33:58.655Z,1.10
2023-12-26T03:36:26.576Z,0.70
2023-12-26T03:38:54.313Z,1.45
2023-12-26T03:41:21.997Z,0.90
2023-12-26T03:43:49.828Z,1.75
2023-12-26T03:46:18.027Z,0.70
2023-12-26T03:48:45.931Z,1.30
2023-12-26T03:51:17.030Z,0.95
2023-12-26T03:53:44.715Z,1.33
2023-12-26T03:56:12.391Z,0.90
2023-12-26T03:58:59.357Z,0.65
2023-12-26T04:01:27.354Z,0.90
2023-12-26T04:03:55.285Z,1.20
2023-12-26T04:06:25.330Z,1.20
2023-12-26T04:08:54.022Z,1.35
2023-12-26T04:11:24.028Z,1.02
2023-12-26T04:13:51.730Z,0.77
2023-12-26T04:16:19.457Z,0.82
2023-12-26T04:18:47.536Z,0.93
2023-12-26T04:21:18.158Z,0.88
2023-12-26T04:23:49.061Z,1.17
2023-12-26T04:26:17.507Z,0.88
2023-12-26T04:28:46.032Z,0.75
2023-12-26T04:31:13.775Z,0.80
2023-12-26T04:33:41.629Z,0.85
2023-12-26T04:38:56.106Z,0.80
2023-12-26T04:41:23.820Z,0.85
2023-12-26T04:43:51.492Z,0.77
2023-12-26T04:46:19.558Z,1.10
2023-12-26T04:48:48.070Z,0.95
2023-12-26T04:51:18.630Z,2.22
2023-12-26T04:53:47.099Z,0.85
2023-12-26T04:56:19.356Z,0.83
2023-12-26T04:58:48.908Z,0.82
2023-12-26T05:01:17.491Z,0.80
2023-12-26T05:03:45.860Z,0.98
2023-12-26T05:06:13.937Z,1.08
2023-12-26T05:08:42.438Z,1.33
2023-12-26T05:14:01.873Z,0.90
2023-12-26T05:16:31.375Z,0.93
2023-12-26T05:18:59.445Z,1.10
2023-12-26T05:21:27.256Z,1.23
2023-12-26T05:23:54.932Z,1.25
2023-12-26T05:26:22.739Z,1.08
2023-12-26T05:28:51.054Z,1.27
2023-12-26T05:31:22.039Z,1.88
2023-12-26T05:33:50.245Z,2.00
2023-12-26T05:36:18.249Z,1.27
2023-12-26T05:38:46.086Z,1.38
2023-12-26T05:41:13.830Z,0.90
2023-12-26T05:43:41.501Z,1.75
2023-12-26T05:46:09.134Z,1.33
2023-12-26T05:48:38.593Z,1.25
2023-12-26T05:51:07.618Z,1.80
2023-12-26T05:53:35.301Z,2.22
2023-12-26T05:56:03.110Z,1.25
2023-12-26T05:58:30.814Z,2.13
2023-12-26T06:00:58.586Z,1.38
2023-12-26T06:03:26.862Z,1.70
2023-12-26T06:05:56.458Z,1.40
2023-12-26T06:08:28.189Z,1.73
2023-12-26T06:10:55.931Z,1.70
2023-12-26T06:13:23.620Z,1.67
2023-12-26T06:15:51.323Z,1.30
2023-12-26T06:18:19.417Z,1.42
2023-12-26T06:20:49.729Z,1.55
2023-12-26T06:23:19.264Z,1.00
2023-12-26T06:25:47.337Z,1.10
2023-12-26T06:28:15.076Z,1.40
2023-12-26T06:30:42.902Z,1.23
2023-12-26T06:33:10.854Z,1.35
2023-12-26T06:35:40.000Z,1.20
2023-12-26T06:38:13.688Z,1.27
2023-12-26T06:40:43.369Z,1.45
2023-12-26T06:43:11.483Z,1.45
2023-12-26T06:45:39.753Z,1.92
2023-12-26T06:48:07.776Z,1.43
2023-12-26T06:50:35.566Z,1.40
2023-12-26T06:53:03.392Z,1.77
2023-12-26T06:55:31.530Z,1.15
2023-12-26T06:58:00.579Z,1.33
2023-12-26T07:00:28.341Z,1.27
2023-12-26T07:02:57.272Z,1.55
2023-12-26T07:05:25.650Z,1.17
2023-12-26T07:08:08.448Z,2.00
2023-12-26T07:10:36.153Z,1.45
2023-12-26T07:13:05.335Z,0.90
2023-12-26T07:15:33.215Z,1.30
2023-12-26T07:18:01.206Z,1.05
2023-12-26T07:20:28.887Z,1.33
2023-12-26T07:22:56.890Z,1.08
2023-12-26T07:25:24.730Z,1.03
2023-12-26T07:27:52.445Z,0.80
2023-12-26T07:30:25.517Z,0.85
2023-12-26T07:32:53.466Z,0.80
2023-12-26T07:35:24.116Z,1.48
2023-12-26T07:37:51.779Z,0.73
2023-12-26T07:40:21.195Z,1.10
2023-12-26T07:42:48.929Z,1.10
2023-12-26T07:45:17.062Z,1.50
2023-12-26T07:47:46.363Z,1.42
2023-12-26T07:50:14.426Z,0.93
2023-12-26T07:52:42.216Z,1.05
2023-12-26T07:55:10.124Z,1.23
2023-12-26T07:57:37.915Z,1.35
2023-12-26T08:00:06.307Z,0.70
2023-12-26T08:02:34.006Z,0.80
2023-12-26T08:05:03.346Z,0.80
2023-12-26T08:07:31.165Z,0.90
2023-12-26T08:10:01.221Z,1.60
2023-12-26T08:12:29.078Z,1.00
2023-12-26T08:14:56.803Z,0.70
2023-12-26T08:17:24.712Z,1.17
2023-12-26T08:19:52.773Z,0.93
2023-12-26T08:22:21.809Z,1.58
2023-12-26T08:24:49.925Z,1.48
2023-12-26T08:27:19.829Z,0.50
2023-12-26T08:29:47.693Z,0.70
2023-12-26T08:32:15.581Z,1.42
2023-12-26T08:34:45.470Z,0.60
2023-12-26T08:37:13.308Z,0.90
2023-12-26T08:39:42.441Z,1.60
2023-12-26T08:42:10.300Z,0.68
2023-12-26T08:44:38.006Z,0.98
2023-12-26T08:49:51.271Z,0.55
2023-12-26T08:52:19.332Z,0.83
2023-12-26T08:54:48.543Z,0.80
2023-12-26T08:57:16.894Z,1.13
2023-12-26T08:59:44.594Z,1.23
2023-12-26T09:02:12.275Z,1.35
2023-12-26T09:04:40.178Z,0.73
2023-12-26T09:07:07.977Z,1.10
2023-12-26T09:09:35.667Z,1.20
2023-12-26T09:12:05.052Z,1.67
2023-12-26T09:14:32.744Z,1.13
2023-12-26T09:17:00.481Z,0.93
2023-12-26T09:19:30.243Z,1.02
2023-12-26T09:21:58.011Z,1.48
2023-12-26T09:24:26.751Z,0.70
2023-12-26T09:26:54.662Z,1.67
2023-12-26T09:29:23.925Z,0.80
2023-12-26T09:31:51.684Z,0.57
2023-12-26T09:34:19.766Z,1.00
2023-12-26T09:36:47.496Z,1.00
2023-12-26T09:39:15.240Z,1.02
2023-12-26T09:41:45.244Z,0.80
2023-12-26T09:44:13.066Z,1.38
2023-12-26T09:46:42.197Z,1.50
2023-12-26T09:49:15.851Z,1.05
2023-12-26T09:51:45.732Z,1.70
2023-12-26T09:54:14.602Z,1.33
2023-12-26T09:56:42.784Z,0.80
2023-12-26T09:59:11.914Z,1.02
2023-12-26T10:01:39.740Z,1.10
2023-12-26T10:04:08.969Z,1.17
2023-12-26T10:06:36.766Z,1.30
2023-12-26T10:09:05.319Z,1.05
2023-12-26T10:11:33.992Z,1.10
2023-12-26T10:14:01.797Z,0.85
2023-12-26T10:16:29.587Z,0.77
2023-12-26T10:18:57.404Z,1.07
2023-12-26T10:21:26.966Z,0.95
2023-12-26T10:23:55.149Z,0.65
2023-12-26T10:26:22.992Z,1.13
2023-12-26T10:28:57.755Z,1.00
2023-12-26T10:31:28.308Z,1.10
2023-12-26T10:33:56.845Z,1.08
2023-12-26T10:36:25.997Z,1.35
2023-12-26T10:38:53.997Z,0.85
2023-12-26T10:41:25.942Z,1.48
2023-12-26T10:43:56.991Z,1.03
2023-12-26T10:46:25.281Z,0.60
2023-12-26T10:48:55.224Z,1.40
2023-12-26T10:51:26.212Z,1.20
2023-12-26T10:53:57.276Z,1.10
2023-12-26T10:56:26.002Z,1.40
2023-12-26T10:58:54.473Z,0.95
2023-12-26T11:02:03.777Z,1.10
2023-12-26T11:05:15.191Z,0.77
2023-12-26T11:08:19.551Z,1.13
2023-12-26T11:11:23.557Z,0.90
2023-12-26T11:14:27.897Z,1.23
2023-12-26T11:17:31.892Z,0.98
2023-12-26T11:20:36.059Z,1.50
2023-12-26T11:23:40.157Z,0.80
2023-12-26T11:26:44.372Z,1.70
2023-12-26T11:29:48.296Z,1.38
2023-12-26T11:32:52.578Z,2.30
2023-12-26T11:35:56.823Z,1.40
2023-12-26T11:39:01.128Z,1.00
2023-12-26T11:42:05.137Z,0.80
2023-12-26T11:45:09.137Z,1.23
2023-12-26T11:48:13.619Z,1.88
2023-12-26T11:51:18.180Z,1.25
2023-12-26T11:54:22.454Z,1.42
2023-12-26T11:57:27.255Z,1.20
2023-12-26T12:00:31.321Z,0.95
2023-12-26T12:03:35.739Z,1.10
2023-12-26T12:06:41.024Z,1.02
2023-12-26T12:09:45.157Z,1.05
2023-12-26T12:12:49.174Z,1.23
2023-12-26T12:15:52.997Z,1.10
2023-12-26T12:18:56.986Z,1.48
2023-12-26T12:22:01.314Z,1.42
2023-12-26T12:25:05.266Z,1.55
2023-12-26T12:28:09.432Z,1.00
2023-12-26T12:31:13.384Z,1.60
2023-12-26T12:34:17.840Z,0.80
2023-12-26T12:37:22.293Z,1.30
2023-12-26T12:40:26.170Z,1.30
2023-12-26T12:43:29.834Z,1.40
2023-12-26T12:46:33.600Z,1.35
2023-12-26T12:49:37.582Z,1.10
2023-12-26T12:52:42.148Z,1.08
2023-12-26T12:55:46.091Z,1.17
2023-12-26T12:58:50.058Z,1.13
2023-12-26T13:01:54.170Z,1.20
2023-12-26T13:04:58.436Z,0.98
2023-12-26T13:08:02.473Z,0.98
2023-12-26T13:11:06.241Z,0.98
2023-12-26T13:14:10.355Z,0.90
2023-12-26T13:17:14.430Z,1.02
2023-12-26T13:20:18.570Z,2.55
2023-12-26T13:23:22.759Z,1.20
2023-12-26T13:26:26.902Z,1.17
2023-12-26T13:29:30.931Z,1.03
2023-12-26T13:32:34.952Z,0.93
2023-12-26T13:35:38.995Z,2.15
2023-12-26T13:38:43.913Z,1.35
2023-12-26T13:41:47.805Z,0.70
2023-12-26T13:44:51.908Z,1.50
2023-12-26T13:47:56.062Z,1.15
2023-12-26T13:51:00.582Z,1.48
2023-12-26T13:53:30.006Z,1.33
2023-12-26T13:56:16.382Z,0.95
2023-12-26T13:59:02.705Z,1.67
2023-12-26T14:01:52.156Z,1.33
2023-12-26T14:04:40.530Z,1.73
2023-12-26T14:07:27.132Z,1.38
2023-12-26T14:10:13.490Z,1.38
2023-12-26T14:12:59.929Z,1.23
2023-12-26T14:15:46.144Z,2.10
2023-12-26T14:18:32.846Z,1.35
2023-12-26T14:21:19.365Z,1.88
2023-12-26T14:24:05.681Z,1.45
2023-12-26T14:26:52.025Z,1.37
2023-12-26T14:29:38.507Z,1.63
2023-12-26T14:32:25.022Z,1.77
2023-12-26T14:35:11.566Z,1.50
2023-12-26T14:37:58.055Z,1.70
2023-12-26T14:40:45.736Z,1.70
2023-12-26T14:43:33.071Z,1.40
2023-12-26T14:46:19.539Z,1.52
2023-12-26T14:49:10.855Z,1.40
2023-12-26T14:51:57.557Z,1.67
2023-12-26T14:54:43.694Z,1.27
2023-12-26T14:57:30.016Z,0.93
2023-12-26T15:00:18.015Z,1.75
2023-12-26T15:02:48.329Z,1.73
2023-12-26T15:05:17.842Z,1.60
2023-12-26T15:07:46.493Z,2.17
2023-12-26T15:10:15.174Z,2.05
2023-12-26T15:12:45.702Z,1.80
2023-12-26T15:15:15.312Z,2.05
2023-12-26T15:17:45.186Z,2.80
2023-12-26T15:20:14.442Z,3.00
2023-12-26T15:22:42.294Z,2.95
2023-12-26T15:25:10.181Z,3.80
2023-12-26T15:27:38.043Z,3.40
2023-12-26T15:30:06.368Z,5.18
2023-12-26T15:32:36.609Z,5.20
2023-12-26T15:35:06.067Z,5.40
2023-12-26T15:37:35.226Z,4.65
2023-12-26T15:40:04.253Z,3.88
2023-12-26T15:42:32.024Z,3.13
2023-12-26T15:44:59.822Z,2.83
2023-12-26T15:47:27.653Z,3.03
2023-12-26T15:49:55.392Z,3.80
2023-12-26T15:52:23.077Z,3.53
2023-12-26T15:54:52.513Z,3.17
2023-12-26T15:57:20.268Z,2.87
2023-12-26T15:59:47.970Z,3.03
2023-12-26T16:02:16.549Z,4.13
2023-12-26T16:04:44.410Z,3.15
2023-12-26T16:07:12.218Z,3.75
2023-12-26T16:09:41.158Z,3.60
2023-12-26T16:12:10.459Z,3.58
2023-12-26T16:14:38.214Z,4.70
2023-12-26T16:17:06.102Z,4.30
2023-12-26T16:19:33.816Z,3.50
2023-12-26T16:22:01.527Z,3.47
2023-12-26T16:24:34.286Z,3.15
2023-12-26T16:27:03.721Z,2.47
2023-12-26T16:29:33.213Z,3.60
2023-12-26T16:32:01.117Z,3.55
2023-12-26T16:34:29.237Z,4.20
2023-12-26T16:36:57.230Z,3.45
2023-12-26T16:39:25.003Z,3.78
2023-12-26T16:42:01.184Z,6.63
2023-12-26T16:44:30.422Z,9.40
2023-12-26T16:46:59.534Z,8.73
2023-12-26T16:49:27.591Z,7.35
2023-12-26T16:51:55.490Z,4.22
2023-12-26T16:54:23.420Z,3.40
2023-12-26T16:56:51.324Z,3.08
2023-12-26T16:59:19.371Z,4.40
2023-12-26T17:01:47.598Z,3.20
2023-12-26T17:04:18.233Z,3.78
2023-12-26T17:06:48.525Z,3.35
2023-12-26T17:09:16.534Z,3.67
2023-12-26T17:11:45.519Z,3.07
2023-12-26T17:14:13.283Z,2.72
2023-12-26T17:16:41.771Z,3.00
2023-12-26T17:19:11.557Z,2.58
2023-12-26T17:21:42.481Z,2.95
2023-12-26T17:24:10.666Z,2.57
2023-12-26T17:26:39.496Z,2.60
2023-12-26T17:29:08.092Z,2.50
2023-12-26T17:31:35.970Z,2.55
2023-12-26T17:34:03.764Z,2.75
2023-12-26T17:36:32.352Z,3.13
2023-12-26T17:39:01.549Z,3.20
2023-12-26T17:41:29.269Z,3.88
2023-12-26T17:43:57.088Z,3.00
2023-12-26T17:46:24.767Z,2.50
2023-12-26T17:48:53.240Z,2.80
2023-12-26T17:51:21.336Z,2.00
2023-12-26T17:53:49.145Z,2.95
2023-12-26T17:56:20.676Z,2.50
2023-12-26T17:58:49.536Z,2.25
2023-12-26T18:01:17.552Z,2.63
2023-12-26T18:03:45.962Z,2.38
2023-12-26T18:06:14.368Z,3.17
2023-12-26T18:08:42.123Z,2.45
2023-12-26T18:11:10.724Z,2.50
2023-12-26T18:13:39.924Z,3.03
2023-12-26T18:16:07.785Z,2.97
2023-12-26T18:18:37.024Z,4.00
2023-12-26T18:21:05.456Z,4.15
2023-12-26T18:23:33.329Z,3.58
2023-12-26T18:26:01.043Z,3.87
2023-12-26T18:28:28.922Z,3.50
2023-12-26T18:30:58.679Z,4.05
2023-12-26T18:33:27.687Z,3.70
2023-12-26T18:35:55.669Z,3.78
2023-12-26T18:38:23.430Z,4.07
2023-12-26T18:40:51.137Z,4.20
2023-12-26T18:43:20.671Z,3.22
2023-12-26T18:45:48.409Z,4.00
2023-12-26T18:48:19.617Z,3.88
2023-12-26T18:50:47.528Z,4.03
2023-12-26T18:53:15.435Z,4.68
2023-12-26T18:55:43.109Z,3.08
2023-12-26T18:58:10.926Z,3.35
2023-12-26T19:00:38.872Z,2.90
2023-12-26T19:03:07.075Z,3.37
2023-12-26T19:05:37.350Z,3.70
2023-12-26T19:08:06.050Z,3.33
2023-12-26T19:10:35.028Z,4.00
2023-12-26T19:13:02.836Z,3.17
2023-12-26T19:15:30.707Z,3.60
2023-12-26T19:17:58.770Z,4.20
2023-12-26T19:20:26.824Z,3.38
2023-12-26T19:22:57.870Z,2.65
2023-12-26T19:25:25.627Z,2.55
2023-12-26T19:27:53.678Z,2.70
2023-12-26T19:30:21.597Z,2.33
2023-12-26T19:32:49.625Z,2.70
2023-12-26T19:35:19.778Z,2.70
2023-12-26T19:37:47.512Z,2.00
2023-12-26T19:40:16.908Z,2.50
2023-12-26T19:42:44.749Z,2.10
2023-12-26T19:45:14.749Z,2.25
2023-12-26T19:47:43.127Z,2.55
2023-12-26T19:50:11.192Z,2.83
2023-12-26T19:52:39.063Z,2.57
2023-12-26T19:55:06.991Z,2.72
2023-12-26T19:57:36.298Z,3.65
2023-12-26T20:00:05.646Z,2.40
2023-12-26T20:02:33.851Z,1.88
2023-12-26T20:05:01.847Z,1.97
2023-12-26T20:07:29.737Z,2.72
2023-12-26T20:10:00.268Z,2.10
2023-12-26T20:12:29.297Z,1.88
2023-12-26T20:14:58.537Z,3.20
2023-12-26T20:17:26.591Z,1.80
2023-12-26T20:19:54.484Z,2.15
2023-12-26T20:22:24.178Z,1.42
2023-12-26T20:24:54.846Z,1.30
2023-12-26T20:27:23.005Z,1.40
2023-12-26T20:29:50.872Z,1.70
2023-12-26T20:32:21.642Z,1.80
2023-12-26T20:34:51.622Z,1.73
2023-12-26T20:37:20.442Z,1.60
2023-12-26T20:39:48.096Z,1.95
2023-12-26T20:42:18.503Z,2.40
2023-12-26T20:44:47.242Z,2.58
2023-12-26T20:47:15.100Z,1.98
2023-12-26T20:49:44.436Z,1.85
2023-12-26T20:52:12.238Z,2.85
2023-12-26T20:54:39.971Z,2.27
2023-12-26T20:57:08.772Z,3.10
2023-12-26T20:59:36.451Z,2.00
2023-12-26T21:02:04.064Z,1.77
2023-12-26T21:04:32.371Z,1.75
2023-12-26T21:07:02.248Z,1.27
2023-12-26T21:09:30.159Z,1.83
2023-12-26T21:11:57.996Z,1.35
2023-12-26T21:14:29.351Z,2.30
2023-12-26T21:16:56.988Z,1.70
2023-12-26T21:19:25.033Z,1.57
2023-12-26T21:21:52.752Z,1.80
2023-12-26T21:24:21.930Z,1.88
2023-12-26T21:26:51.091Z,1.67
2023-12-26T21:29:18.920Z,1.98
2023-12-26T21:31:46.622Z,1.40
2023-12-26T21:34:14.413Z,1.50
2023-12-26T21:36:42.218Z,2.35
2023-12-26T21:39:10.109Z,2.30
2023-12-26T21:41:43.357Z,2.03
2023-12-26T21:44:14.737Z,1.77
2023-12-26T21:46:44.980Z,1.40
2023-12-26T21:49:12.712Z,1.63
2023-12-26T21:51:40.543Z,1.50
2023-12-26T21:54:08.563Z,1.30
2023-12-26T21:56:36.325Z,1.40
2023-12-26T22:02:03.239Z,1.55
2023-12-26T22:04:31.001Z,1.27
2023-12-26T22:06:59.091Z,1.45
2023-12-26T22:09:27.133Z,1.10
2023-12-26T22:11:54.853Z,1.10
2023-12-26T22:14:26.818Z,1.67
2023-12-26T22:16:55.067Z,1.92
2023-12-26T22:19:23.186Z,1.50
2023-12-26T22:21:51.093Z,1.10
2023-12-26T22:24:18.777Z,1.40
2023-12-26T22:26:46.505Z,1.00
2023-12-26T22:29:14.294Z,1.30
2023-12-26T22:31:43.282Z,1.42
2023-12-26T22:34:12.500Z,1.00
2023-12-26T22:36:40.697Z,1.20
2023-12-26T22:39:08.515Z,1.40
2023-12-26T22:41:36.884Z,1.08
2023-12-26T22:44:05.530Z,1.65
2023-12-26T22:46:33.215Z,1.63
2023-12-26T22:49:03.339Z,1.55
2023-12-26T22:51:32.134Z,1.10
2023-12-26T22:54:00.426Z,1.70
2023-12-26T22:56:27.164Z,2.17
2023-12-26T22:58:54.920Z,1.37
2023-12-26T23:04:09.327Z,1.63
2023-12-26T23:06:40.727Z,1.38
2023-12-26T23:09:11.351Z,1.20
2023-12-26T23:11:40.038Z,1.17
2023-12-26T23:14:07.736Z,1.30
2023-12-26T23:16:35.644Z,1.23
2023-12-26T23:19:03.416Z,1.30
2023-12-26T23:21:32.625Z,1.33
2023-12-26T23:24:00.363Z,1.77
2023-12-26T23:26:28.019Z,1.75
2023-12-26T23:29:01.297Z,1.23
2023-12-26T23:31:32.253Z,1.50
2023-12-26T23:34:00.475Z,1.27
2023-12-26T23:36:28.310Z,2.67
2023-12-26T23:38:57.491Z,2.47
2023-12-26T23:41:25.148Z,1.20
2023-12-26T23:43:52.896Z,1.85
2023-12-26T23:46:20.571Z,1.50
2023-12-26T23:48:56.880Z,1.27
2023-12-26T23:51:26.377Z,1.20
2023-12-26T23:53:54.152Z,1.48
2023-12-26T23:56:23.275Z,1.27
2023-12-26T23:58:51.092Z,2.70
